sensor_id;sensor_type;location;lat;lon;timestamp;P1;durP1;ratioP1;P2;durP2;ratioP2
67500;SDS011;54349;52.528;19.760;2023-02-01T00:01:31;4.30;;;1.90;;
67500;SDS011;54349;52.528;19.760;2023-02-01T00:04:00;3.50;;;1.90;;
67500;SDS011;54349;52.528;19.760;2023-02-01T00:06:28;3.00;;;1.70;;
67500;SDS011;54349;52.528;19.760;2023-02-01T00:08:56;3.90;;;1.70;;
67500;SDS011;54349;52.528;19.760;2023-02-01T00:11:25;3.10;;;1.70;;
67500;SDS011;54349;52.528;19.760;2023-02-01T00:13:53;4.10;;;1.70;;
67500;SDS011;54349;52.528;19.760;2023-02-01T00:16:24;4.00;;;1.70;;
67500;SDS011;54349;52.528;19.760;2023-02-01T00:19:03;2.30;;;1.50;;
67500;SDS011;54349;52.528;19.760;2023-02-01T00:21:35;3.50;;;1.60;;
67500;SDS011;54349;52.528;19.760;2023-02-01T00:24:05;2.90;;;1.60;;
67500;SDS011;54349;52.528;19.760;2023-02-01T00:26:42;2.90;;;1.60;;
67500;SDS011;54349;52.528;19.760;2023-02-01T00:29:17;3.60;;;1.50;;
67500;SDS011;54349;52.528;19.760;2023-02-01T00:31:50;2.90;;;1.60;;
67500;SDS011;54349;52.528;19.760;2023-02-01T00:34:20;2.90;;;1.50;;
67500;SDS011;54349;52.528;19.760;2023-02-01T00:36:48;3.40;;;1.60;;
67500;SDS011;54349;52.528;19.760;2023-02-01T00:39:17;3.30;;;1.50;;
67500;SDS011;54349;52.528;19.760;2023-02-01T00:41:45;2.80;;;1.40;;
67500;SDS011;54349;52.528;19.760;2023-02-01T00:44:13;3.30;;;1.60;;
67500;SDS011;54349;52.528;19.760;2023-02-01T00:46:41;3.10;;;1.50;;
67500;SDS011;54349;52.528;19.760;2023-02-01T00:49:09;4.40;;;1.50;;
67500;SDS011;54349;52.528;19.760;2023-02-01T00:51:37;3.00;;;1.50;;
67500;SDS011;54349;52.528;19.760;2023-02-01T00:54:05;4.20;;;1.70;;
67500;SDS011;54349;52.528;19.760;2023-02-01T00:56:34;3.60;;;1.30;;
67500;SDS011;54349;52.528;19.760;2023-02-01T00:59:02;5.40;;;1.90;;
67500;SDS011;54349;52.528;19.760;2023-02-01T01:01:30;4.20;;;1.80;;
67500;SDS011;54349;52.528;19.760;2023-02-01T01:03:59;3.40;;;1.50;;
67500;SDS011;54349;52.528;19.760;2023-02-01T01:06:29;4.30;;;1.80;;
67500;SDS011;54349;52.528;19.760;2023-02-01T01:09:01;4.10;;;1.60;;
67500;SDS011;54349;52.528;19.760;2023-02-01T01:11:35;3.40;;;1.50;;
67500;SDS011;54349;52.528;19.760;2023-02-01T01:14:07;5.00;;;1.80;;
67500;SDS011;54349;52.528;19.760;2023-02-01T01:16:36;4.30;;;1.50;;
67500;SDS011;54349;52.528;19.760;2023-02-01T01:19:04;5.30;;;1.60;;
67500;SDS011;54349;52.528;19.760;2023-02-01T01:21:33;3.80;;;1.50;;
67500;SDS011;54349;52.528;19.760;2023-02-01T01:24:01;4.70;;;1.90;;
67500;SDS011;54349;52.528;19.760;2023-02-01T01:26:30;3.30;;;1.40;;
67500;SDS011;54349;52.528;19.760;2023-02-01T01:28:59;6.10;;;1.70;;
67500;SDS011;54349;52.528;19.760;2023-02-01T01:31:28;4.20;;;1.40;;
67500;SDS011;54349;52.528;19.760;2023-02-01T01:33:59;6.70;;;1.60;;
67500;SDS011;54349;52.528;19.760;2023-02-01T01:36:29;4.20;;;1.90;;
67500;SDS011;54349;52.528;19.760;2023-02-01T01:38:57;4.50;;;1.90;;
67500;SDS011;54349;52.528;19.760;2023-02-01T01:41:30;3.80;;;1.50;;
67500;SDS011;54349;52.528;19.760;2023-02-01T01:47:22;4.60;;;1.60;;
67500;SDS011;54349;52.528;19.760;2023-02-01T01:49:52;4.60;;;1.70;;
67500;SDS011;54349;52.528;19.760;2023-02-01T01:52:21;5.10;;;1.80;;
67500;SDS011;54349;52.528;19.760;2023-02-01T01:54:51;4.00;;;1.50;;
67500;SDS011;54349;52.528;19.760;2023-02-01T01:57:27;6.40;;;1.80;;
67500;SDS011;54349;52.528;19.760;2023-02-01T02:00:08;4.90;;;1.80;;
67500;SDS011;54349;52.528;19.760;2023-02-01T02:02:46;4.10;;;1.50;;
67500;SDS011;54349;52.528;19.760;2023-02-01T02:05:17;6.40;;;1.90;;
67500;SDS011;54349;52.528;19.760;2023-02-01T02:07:49;6.50;;;2.00;;
67500;SDS011;54349;52.528;19.760;2023-02-01T02:10:20;5.10;;;1.70;;
67500;SDS011;54349;52.528;19.760;2023-02-01T02:12:49;5.00;;;1.60;;
67500;SDS011;54349;52.528;19.760;2023-02-01T02:15:17;3.80;;;1.60;;
67500;SDS011;54349;52.528;19.760;2023-02-01T02:17:59;5.60;;;1.80;;
67500;SDS011;54349;52.528;19.760;2023-02-01T02:38:45;4.20;;;1.80;;
67500;SDS011;54349;52.528;19.760;2023-02-01T02:41:31;6.30;;;2.00;;
67500;SDS011;54349;52.528;19.760;2023-02-01T02:50:45;4.00;;;1.50;;
67500;SDS011;54349;52.528;19.760;2023-02-01T02:53:43;4.50;;;1.80;;
67500;SDS011;54349;52.528;19.760;2023-02-01T02:56:56;6.40;;;1.80;;
67500;SDS011;54349;52.528;19.760;2023-02-01T02:59:47;6.30;;;1.60;;
67500;SDS011;54349;52.528;19.760;2023-02-01T03:02:36;5.70;;;1.70;;
67500;SDS011;54349;52.528;19.760;2023-02-01T03:05:25;6.80;;;1.80;;
67500;SDS011;54349;52.528;19.760;2023-02-01T03:08:05;5.70;;;1.70;;
67500;SDS011;54349;52.528;19.760;2023-02-01T03:19:01;4.70;;;1.60;;
67500;SDS011;54349;52.528;19.760;2023-02-01T03:21:49;5.90;;;1.80;;
67500;SDS011;54349;52.528;19.760;2023-02-01T03:27:34;5.10;;;1.70;;
67500;SDS011;54349;52.528;19.760;2023-02-01T03:30:37;5.50;;;1.90;;
67500;SDS011;54349;52.528;19.760;2023-02-01T03:41:42;6.40;;;1.70;;
67500;SDS011;54349;52.528;19.760;2023-02-01T03:44:19;4.70;;;1.80;;
67500;SDS011;54349;52.528;19.760;2023-02-01T03:47:03;5.10;;;1.70;;
67500;SDS011;54349;52.528;19.760;2023-02-01T03:49:43;4.20;;;1.60;;
67500;SDS011;54349;52.528;19.760;2023-02-01T03:52:21;5.60;;;1.80;;
67500;SDS011;54349;52.528;19.760;2023-02-01T03:54:52;5.60;;;2.00;;
67500;SDS011;54349;52.528;19.760;2023-02-01T03:57:26;5.70;;;1.90;;
67500;SDS011;54349;52.528;19.760;2023-02-01T04:00:07;4.90;;;1.80;;
67500;SDS011;54349;52.528;19.760;2023-02-01T04:02:41;7.30;;;2.10;;
67500;SDS011;54349;52.528;19.760;2023-02-01T04:05:10;7.80;;;1.90;;
67500;SDS011;54349;52.528;19.760;2023-02-01T04:07:43;3.50;;;1.80;;
67500;SDS011;54349;52.528;19.760;2023-02-01T04:10:12;4.40;;;1.80;;
67500;SDS011;54349;52.528;19.760;2023-02-01T04:12:40;4.70;;;1.90;;
67500;SDS011;54349;52.528;19.760;2023-02-01T04:15:09;7.30;;;2.00;;
67500;SDS011;54349;52.528;19.760;2023-02-01T04:17:37;6.90;;;1.70;;
67500;SDS011;54349;52.528;19.760;2023-02-01T04:20:05;3.90;;;1.60;;
67500;SDS011;54349;52.528;19.760;2023-02-01T04:22:33;5.30;;;1.90;;
67500;SDS011;54349;52.528;19.760;2023-02-01T04:25:01;3.80;;;1.60;;
67500;SDS011;54349;52.528;19.760;2023-02-01T04:27:29;6.70;;;2.00;;
67500;SDS011;54349;52.528;19.760;2023-02-01T04:29:57;8.00;;;2.10;;
67500;SDS011;54349;52.528;19.760;2023-02-01T04:32:25;8.10;;;1.90;;
67500;SDS011;54349;52.528;19.760;2023-02-01T04:34:53;7.00;;;1.90;;
67500;SDS011;54349;52.528;19.760;2023-02-01T04:37:21;4.70;;;2.00;;
67500;SDS011;54349;52.528;19.760;2023-02-01T04:39:49;6.70;;;1.80;;
67500;SDS011;54349;52.528;19.760;2023-02-01T04:42:17;5.00;;;1.80;;
67500;SDS011;54349;52.528;19.760;2023-02-01T04:44:46;6.60;;;2.00;;
67500;SDS011;54349;52.528;19.760;2023-02-01T04:47:14;6.50;;;1.90;;
67500;SDS011;54349;52.528;19.760;2023-02-01T04:49:43;6.90;;;1.80;;
67500;SDS011;54349;52.528;19.760;2023-02-01T04:52:11;6.40;;;1.80;;
67500;SDS011;54349;52.528;19.760;2023-02-01T04:54:39;6.80;;;1.90;;
67500;SDS011;54349;52.528;19.760;2023-02-01T04:57:07;4.50;;;1.80;;
67500;SDS011;54349;52.528;19.760;2023-02-01T04:59:35;5.20;;;1.80;;
67500;SDS011;54349;52.528;19.760;2023-02-01T05:02:03;4.00;;;1.40;;
67500;SDS011;54349;52.528;19.760;2023-02-01T05:04:31;7.10;;;1.90;;
67500;SDS011;54349;52.528;19.760;2023-02-01T05:06:59;6.10;;;2.10;;
67500;SDS011;54349;52.528;19.760;2023-02-01T05:09:28;6.10;;;1.90;;
67500;SDS011;54349;52.528;19.760;2023-02-01T05:11:56;7.70;;;1.90;;
67500;SDS011;54349;52.528;19.760;2023-02-01T05:14:43;7.70;;;1.90;;
67500;SDS011;54349;52.528;19.760;2023-02-01T05:17:11;4.20;;;1.80;;
67500;SDS011;54349;52.528;19.760;2023-02-01T05:19:39;8.60;;;2.00;;
67500;SDS011;54349;52.528;19.760;2023-02-01T05:22:07;5.40;;;1.90;;
67500;SDS011;54349;52.528;19.760;2023-02-01T05:24:35;8.30;;;2.20;;
67500;SDS011;54349;52.528;19.760;2023-02-01T05:27:03;6.00;;;1.90;;
67500;SDS011;54349;52.528;19.760;2023-02-01T05:29:31;6.00;;;1.80;;
67500;SDS011;54349;52.528;19.760;2023-02-01T05:31:59;4.80;;;1.70;;
67500;SDS011;54349;52.528;19.760;2023-02-01T05:34:47;8.10;;;2.30;;
67500;SDS011;54349;52.528;19.760;2023-02-01T05:37:16;4.60;;;2.00;;
67500;SDS011;54349;52.528;19.760;2023-02-01T05:39:44;6.50;;;1.90;;
67500;SDS011;54349;52.528;19.760;2023-02-01T05:42:12;6.90;;;1.90;;
67500;SDS011;54349;52.528;19.760;2023-02-01T05:44:40;4.80;;;1.80;;
67500;SDS011;54349;52.528;19.760;2023-02-01T05:47:09;5.90;;;1.50;;
67500;SDS011;54349;52.528;19.760;2023-02-01T05:49:37;9.10;;;1.70;;
67500;SDS011;54349;52.528;19.760;2023-02-01T05:52:06;5.00;;;1.70;;
67500;SDS011;54349;52.528;19.760;2023-02-01T05:54:34;5.70;;;1.70;;
67500;SDS011;54349;52.528;19.760;2023-02-01T05:57:02;5.60;;;1.70;;
67500;SDS011;54349;52.528;19.760;2023-02-01T05:59:30;5.80;;;1.70;;
67500;SDS011;54349;52.528;19.760;2023-02-01T06:01:58;6.10;;;1.90;;
67500;SDS011;54349;52.528;19.760;2023-02-01T06:04:26;5.70;;;1.60;;
67500;SDS011;54349;52.528;19.760;2023-02-01T06:06:54;6.70;;;2.00;;
67500;SDS011;54349;52.528;19.760;2023-02-01T06:09:22;6.20;;;1.80;;
67500;SDS011;54349;52.528;19.760;2023-02-01T06:11:50;6.10;;;1.80;;
67500;SDS011;54349;52.528;19.760;2023-02-01T06:14:18;5.60;;;1.70;;
67500;SDS011;54349;52.528;19.760;2023-02-01T06:16:47;7.50;;;2.00;;
67500;SDS011;54349;52.528;19.760;2023-02-01T06:19:15;7.20;;;2.10;;
67500;SDS011;54349;52.528;19.760;2023-02-01T06:21:43;6.20;;;1.90;;
67500;SDS011;54349;52.528;19.760;2023-02-01T06:24:12;5.80;;;2.00;;
67500;SDS011;54349;52.528;19.760;2023-02-01T06:26:40;5.90;;;2.10;;
67500;SDS011;54349;52.528;19.760;2023-02-01T06:29:12;5.80;;;1.90;;
67500;SDS011;54349;52.528;19.760;2023-02-01T06:31:40;6.10;;;1.90;;
67500;SDS011;54349;52.528;19.760;2023-02-01T06:34:10;5.60;;;1.80;;
67500;SDS011;54349;52.528;19.760;2023-02-01T06:36:38;8.60;;;2.10;;
67500;SDS011;54349;52.528;19.760;2023-02-01T06:39:07;6.40;;;2.00;;
67500;SDS011;54349;52.528;19.760;2023-02-01T06:41:35;7.30;;;2.10;;
67500;SDS011;54349;52.528;19.760;2023-02-01T06:44:03;5.80;;;1.80;;
67500;SDS011;54349;52.528;19.760;2023-02-01T06:46:31;5.70;;;2.00;;
67500;SDS011;54349;52.528;19.760;2023-02-01T06:49:00;7.90;;;2.00;;
67500;SDS011;54349;52.528;19.760;2023-02-01T06:51:29;9.20;;;1.90;;
67500;SDS011;54349;52.528;19.760;2023-02-01T06:53:58;6.70;;;1.70;;
67500;SDS011;54349;52.528;19.760;2023-02-01T06:56:26;7.90;;;2.10;;
67500;SDS011;54349;52.528;19.760;2023-02-01T06:58:55;6.50;;;1.90;;
67500;SDS011;54349;52.528;19.760;2023-02-01T07:01:23;5.70;;;1.90;;
67500;SDS011;54349;52.528;19.760;2023-02-01T07:03:51;6.10;;;1.90;;
67500;SDS011;54349;52.528;19.760;2023-02-01T07:06:20;6.60;;;2.10;;
67500;SDS011;54349;52.528;19.760;2023-02-01T07:08:48;6.60;;;2.30;;
67500;SDS011;54349;52.528;19.760;2023-02-01T07:11:17;6.80;;;2.10;;
67500;SDS011;54349;52.528;19.760;2023-02-01T07:13:46;6.80;;;2.10;;
67500;SDS011;54349;52.528;19.760;2023-02-01T07:16:18;5.60;;;2.00;;
67500;SDS011;54349;52.528;19.760;2023-02-01T07:18:47;6.60;;;2.10;;
67500;SDS011;54349;52.528;19.760;2023-02-01T07:21:18;8.70;;;2.40;;
67500;SDS011;54349;52.528;19.760;2023-02-01T07:23:47;7.50;;;2.20;;
67500;SDS011;54349;52.528;19.760;2023-02-01T07:26:16;6.30;;;2.20;;
67500;SDS011;54349;52.528;19.760;2023-02-01T07:28:45;7.70;;;2.40;;
67500;SDS011;54349;52.528;19.760;2023-02-01T07:31:16;6.90;;;2.00;;
67500;SDS011;54349;52.528;19.760;2023-02-01T07:33:49;9.60;;;2.50;;
67500;SDS011;54349;52.528;19.760;2023-02-01T07:36:20;4.80;;;1.80;;
67500;SDS011;54349;52.528;19.760;2023-02-01T07:38:48;7.20;;;2.10;;
67500;SDS011;54349;52.528;19.760;2023-02-01T07:41:18;7.40;;;2.30;;
67500;SDS011;54349;52.528;19.760;2023-02-01T07:43:46;6.90;;;2.10;;
67500;SDS011;54349;52.528;19.760;2023-02-01T07:46:15;7.60;;;2.30;;
67500;SDS011;54349;52.528;19.760;2023-02-01T07:48:45;7.40;;;2.20;;
67500;SDS011;54349;52.528;19.760;2023-02-01T07:51:15;6.60;;;2.00;;
67500;SDS011;54349;52.528;19.760;2023-02-01T07:53:44;6.50;;;2.30;;
67500;SDS011;54349;52.528;19.760;2023-02-01T07:56:16;5.80;;;2.00;;
67500;SDS011;54349;52.528;19.760;2023-02-01T07:58:51;8.60;;;2.30;;
67500;SDS011;54349;52.528;19.760;2023-02-01T08:01:24;5.00;;;2.00;;
67500;SDS011;54349;52.528;19.760;2023-02-01T08:04:01;5.90;;;2.20;;
67500;SDS011;54349;52.528;19.760;2023-02-01T08:06:32;7.30;;;2.40;;
67500;SDS011;54349;52.528;19.760;2023-02-01T08:09:03;7.90;;;2.40;;
67500;SDS011;54349;52.528;19.760;2023-02-01T08:11:32;5.60;;;2.10;;
67500;SDS011;54349;52.528;19.760;2023-02-01T08:14:00;7.20;;;2.30;;
67500;SDS011;54349;52.528;19.760;2023-02-01T08:16:29;6.30;;;2.30;;
67500;SDS011;54349;52.528;19.760;2023-02-01T08:18:57;8.30;;;2.50;;
67500;SDS011;54349;52.528;19.760;2023-02-01T08:21:27;6.20;;;2.10;;
67500;SDS011;54349;52.528;19.760;2023-02-01T08:24:09;6.80;;;2.30;;
67500;SDS011;54349;52.528;19.760;2023-02-01T08:26:37;7.40;;;2.40;;
67500;SDS011;54349;52.528;19.760;2023-02-01T08:29:08;6.10;;;2.20;;
67500;SDS011;54349;52.528;19.760;2023-02-01T08:31:39;6.00;;;1.90;;
67500;SDS011;54349;52.528;19.760;2023-02-01T08:34:11;6.00;;;2.20;;
67500;SDS011;54349;52.528;19.760;2023-02-01T08:36:40;7.10;;;2.30;;
67500;SDS011;54349;52.528;19.760;2023-02-01T08:39:10;8.10;;;2.40;;
67500;SDS011;54349;52.528;19.760;2023-02-01T08:41:39;8.10;;;2.40;;
67500;SDS011;54349;52.528;19.760;2023-02-01T08:44:08;7.40;;;2.60;;
67500;SDS011;54349;52.528;19.760;2023-02-01T08:46:36;5.90;;;2.30;;
67500;SDS011;54349;52.528;19.760;2023-02-01T08:49:04;8.60;;;3.20;;
67500;SDS011;54349;52.528;19.760;2023-02-01T08:51:33;6.70;;;2.40;;
67500;SDS011;54349;52.528;19.760;2023-02-01T08:54:01;9.20;;;3.30;;
67500;SDS011;54349;52.528;19.760;2023-02-01T08:56:30;7.80;;;3.10;;
67500;SDS011;54349;52.528;19.760;2023-02-01T08:58:59;9.40;;;3.40;;
67500;SDS011;54349;52.528;19.760;2023-02-01T09:01:27;9.80;;;3.90;;
67500;SDS011;54349;52.528;19.760;2023-02-01T09:03:55;9.70;;;3.80;;
67500;SDS011;54349;52.528;19.760;2023-02-01T09:06:23;9.70;;;3.50;;
67500;SDS011;54349;52.528;19.760;2023-02-01T09:08:52;10.80;;;4.00;;
67500;SDS011;54349;52.528;19.760;2023-02-01T09:11:21;10.10;;;4.10;;
67500;SDS011;54349;52.528;19.760;2023-02-01T09:13:49;9.90;;;3.70;;
67500;SDS011;54349;52.528;19.760;2023-02-01T09:16:17;11.80;;;4.40;;
67500;SDS011;54349;52.528;19.760;2023-02-01T09:18:46;9.50;;;3.90;;
67500;SDS011;54349;52.528;19.760;2023-02-01T09:21:35;9.10;;;4.50;;
67500;SDS011;54349;52.528;19.760;2023-02-01T09:24:05;11.20;;;4.40;;
67500;SDS011;54349;52.528;19.760;2023-02-01T09:26:35;10.20;;;4.40;;
67500;SDS011;54349;52.528;19.760;2023-02-01T09:29:06;13.80;;;5.20;;
67500;SDS011;54349;52.528;19.760;2023-02-01T09:31:41;12.10;;;4.70;;
67500;SDS011;54349;52.528;19.760;2023-02-01T09:34:20;10.80;;;4.30;;
67500;SDS011;54349;52.528;19.760;2023-02-01T09:36:48;9.80;;;4.10;;
67500;SDS011;54349;52.528;19.760;2023-02-01T09:39:17;11.80;;;4.80;;
67500;SDS011;54349;52.528;19.760;2023-02-01T09:41:55;12.40;;;5.20;;
67500;SDS011;54349;52.528;19.760;2023-02-01T09:47:48;11.30;;;4.80;;
67500;SDS011;54349;52.528;19.760;2023-02-01T09:50:30;10.90;;;4.90;;
67500;SDS011;54349;52.528;19.760;2023-02-01T09:53:15;10.70;;;4.50;;
67500;SDS011;54349;52.528;19.760;2023-02-01T09:55:55;11.10;;;5.00;;
67500;SDS011;54349;52.528;19.760;2023-02-01T09:58:39;9.80;;;4.40;;
67500;SDS011;54349;52.528;19.760;2023-02-01T10:01:20;11.30;;;5.10;;
67500;SDS011;54349;52.528;19.760;2023-02-01T10:04:13;10.90;;;4.60;;
67500;SDS011;54349;52.528;19.760;2023-02-01T10:21:53;8.70;;;4.00;;
67500;SDS011;54349;52.528;19.760;2023-02-01T10:24:52;9.80;;;4.20;;
67500;SDS011;54349;52.528;19.760;2023-02-01T10:27:35;11.10;;;4.30;;
67500;SDS011;54349;52.528;19.760;2023-02-01T10:30:37;11.90;;;4.30;;
67500;SDS011;54349;52.528;19.760;2023-02-01T10:33:23;10.90;;;4.30;;
67500;SDS011;54349;52.528;19.760;2023-02-01T10:39:19;10.30;;;4.20;;
67500;SDS011;54349;52.528;19.760;2023-02-01T10:41:48;11.60;;;4.40;;
67500;SDS011;54349;52.528;19.760;2023-02-01T10:44:27;10.50;;;4.50;;
67500;SDS011;54349;52.528;19.760;2023-02-01T10:46:58;10.80;;;4.50;;
67500;SDS011;54349;52.528;19.760;2023-02-01T10:53:05;11.00;;;4.40;;
67500;SDS011;54349;52.528;19.760;2023-02-01T10:55:49;12.80;;;4.80;;
67500;SDS011;54349;52.528;19.760;2023-02-01T10:58:30;11.30;;;5.00;;
67500;SDS011;54349;52.528;19.760;2023-02-01T11:01:04;10.50;;;4.10;;
67500;SDS011;54349;52.528;19.760;2023-02-01T11:03:51;11.40;;;4.50;;
67500;SDS011;54349;52.528;19.760;2023-02-01T11:06:33;12.20;;;5.00;;
67500;SDS011;54349;52.528;19.760;2023-02-01T11:16:58;10.80;;;4.50;;
67500;SDS011;54349;52.528;19.760;2023-02-01T11:19:28;10.80;;;4.30;;
67500;SDS011;54349;52.528;19.760;2023-02-01T11:21:59;10.60;;;4.60;;
67500;SDS011;54349;52.528;19.760;2023-02-01T11:24:33;10.60;;;4.80;;
67500;SDS011;54349;52.528;19.760;2023-02-01T11:27:14;10.70;;;4.30;;
67500;SDS011;54349;52.528;19.760;2023-02-01T11:30:00;9.90;;;4.50;;
67500;SDS011;54349;52.528;19.760;2023-02-01T11:32:34;9.60;;;4.40;;
67500;SDS011;54349;52.528;19.760;2023-02-01T11:35:07;9.70;;;4.40;;
67500;SDS011;54349;52.528;19.760;2023-02-01T11:37:57;10.00;;;4.40;;
67500;SDS011;54349;52.528;19.760;2023-02-01T11:40:45;11.20;;;4.80;;
67500;SDS011;54349;52.528;19.760;2023-02-01T11:43:19;9.50;;;4.40;;
67500;SDS011;54349;52.528;19.760;2023-02-01T11:46:16;9.60;;;4.10;;
67500;SDS011;54349;52.528;19.760;2023-02-01T11:48:54;9.90;;;4.10;;
67500;SDS011;54349;52.528;19.760;2023-02-01T11:54:17;9.70;;;4.10;;
67500;SDS011;54349;52.528;19.760;2023-02-01T11:57:43;8.20;;;3.90;;
67500;SDS011;54349;52.528;19.760;2023-02-01T12:00:58;8.70;;;4.00;;
67500;SDS011;54349;52.528;19.760;2023-02-01T12:06:53;10.20;;;4.30;;
67500;SDS011;54349;52.528;19.760;2023-02-01T12:10:01;7.10;;;3.60;;
67500;SDS011;54349;52.528;19.760;2023-02-01T12:18:50;8.40;;;3.80;;
67500;SDS011;54349;52.528;19.760;2023-02-01T12:22:06;9.30;;;4.40;;
67500;SDS011;54349;52.528;19.760;2023-02-01T12:30:56;8.70;;;3.90;;
67500;SDS011;54349;52.528;19.760;2023-02-01T12:36:32;7.70;;;3.40;;
67500;SDS011;54349;52.528;19.760;2023-02-01T12:42:14;6.60;;;3.30;;
67500;SDS011;54349;52.528;19.760;2023-02-01T12:51:17;12.60;;;5.00;;
67500;SDS011;54349;52.528;19.760;2023-02-01T12:53:57;11.30;;;4.80;;
67500;SDS011;54349;52.528;19.760;2023-02-01T12:56:56;12.70;;;5.20;;
67500;SDS011;54349;52.528;19.760;2023-02-01T13:03:05;12.40;;;5.50;;
67500;SDS011;54349;52.528;19.760;2023-02-01T13:06:23;12.80;;;5.80;;
67500;SDS011;54349;52.528;19.760;2023-02-01T13:11:37;16.80;;;7.30;;
67500;SDS011;54349;52.528;19.760;2023-02-01T13:17:23;13.20;;;6.00;;
67500;SDS011;54349;52.528;19.760;2023-02-01T13:23:02;16.40;;;6.90;;
67500;SDS011;54349;52.528;19.760;2023-02-01T13:25:54;15.20;;;6.80;;
67500;SDS011;54349;52.528;19.760;2023-02-01T13:36:58;12.80;;;5.80;;
67500;SDS011;54349;52.528;19.760;2023-02-01T13:43:02;13.70;;;5.10;;
67500;SDS011;54349;52.528;19.760;2023-02-01T13:45:43;13.90;;;5.70;;
67500;SDS011;54349;52.528;19.760;2023-02-01T13:48:34;13.40;;;5.00;;
67500;SDS011;54349;52.528;19.760;2023-02-01T13:51:12;10.00;;;4.70;;
67500;SDS011;54349;52.528;19.760;2023-02-01T13:53:48;11.70;;;4.90;;
67500;SDS011;54349;52.528;19.760;2023-02-01T13:56:19;12.80;;;5.80;;
67500;SDS011;54349;52.528;19.760;2023-02-01T13:58:54;10.40;;;5.20;;
67500;SDS011;54349;52.528;19.760;2023-02-01T14:04:06;10.40;;;4.80;;
67500;SDS011;54349;52.528;19.760;2023-02-01T14:06:57;11.70;;;5.30;;
67500;SDS011;54349;52.528;19.760;2023-02-01T14:09:33;9.80;;;5.00;;
67500;SDS011;54349;52.528;19.760;2023-02-01T14:15:27;11.10;;;4.60;;
67500;SDS011;54349;52.528;19.760;2023-02-01T14:20:44;11.50;;;4.60;;
67500;SDS011;54349;52.528;19.760;2023-02-01T14:23:21;11.30;;;4.70;;
67500;SDS011;54349;52.528;19.760;2023-02-01T14:26:03;11.30;;;5.30;;
67500;SDS011;54349;52.528;19.760;2023-02-01T14:28:45;12.30;;;5.20;;
67500;SDS011;54349;52.528;19.760;2023-02-01T14:31:40;10.10;;;5.30;;
67500;SDS011;54349;52.528;19.760;2023-02-01T14:50:47;9.30;;;4.80;;
67500;SDS011;54349;52.528;19.760;2023-02-01T14:53:22;10.50;;;5.10;;
67500;SDS011;54349;52.528;19.760;2023-02-01T15:01:14;10.80;;;5.20;;
67500;SDS011;54349;52.528;19.760;2023-02-01T15:04:18;11.90;;;5.40;;
67500;SDS011;54349;52.528;19.760;2023-02-01T15:06:55;10.70;;;5.10;;
67500;SDS011;54349;52.528;19.760;2023-02-01T15:09:32;12.10;;;5.20;;
67500;SDS011;54349;52.528;19.760;2023-02-01T15:14:47;11.30;;;5.20;;
67500;SDS011;54349;52.528;19.760;2023-02-01T15:17:31;10.90;;;4.70;;
67500;SDS011;54349;52.528;19.760;2023-02-01T15:20:23;10.00;;;4.50;;
67500;SDS011;54349;52.528;19.760;2023-02-01T15:25:34;11.30;;;5.10;;
67500;SDS011;54349;52.528;19.760;2023-02-01T15:28:13;9.80;;;5.10;;
67500;SDS011;54349;52.528;19.760;2023-02-01T15:31:12;12.40;;;5.80;;
67500;SDS011;54349;52.528;19.760;2023-02-01T15:33:56;13.60;;;5.30;;
67500;SDS011;54349;52.528;19.760;2023-02-01T15:36:25;11.30;;;5.20;;
67500;SDS011;54349;52.528;19.760;2023-02-01T15:39:26;11.00;;;5.50;;
67500;SDS011;54349;52.528;19.760;2023-02-01T15:41:56;12.40;;;5.60;;
67500;SDS011;54349;52.528;19.760;2023-02-01T15:44:33;11.40;;;5.40;;
67500;SDS011;54349;52.528;19.760;2023-02-01T15:47:17;11.10;;;6.00;;
67500;SDS011;54349;52.528;19.760;2023-02-01T15:49:52;10.70;;;5.40;;
67500;SDS011;54349;52.528;19.760;2023-02-01T15:52:39;10.80;;;5.20;;
67500;SDS011;54349;52.528;19.760;2023-02-01T15:55:21;12.10;;;5.90;;
67500;SDS011;54349;52.528;19.760;2023-02-01T15:57:53;11.90;;;6.10;;
67500;SDS011;54349;52.528;19.760;2023-02-01T16:00:27;10.60;;;5.30;;
67500;SDS011;54349;52.528;19.760;2023-02-01T16:03:01;10.30;;;5.20;;
67500;SDS011;54349;52.528;19.760;2023-02-01T16:05:38;11.80;;;5.20;;
67500;SDS011;54349;52.528;19.760;2023-02-01T16:08:16;12.80;;;5.60;;
67500;SDS011;54349;52.528;19.760;2023-02-01T16:10:52;11.80;;;5.70;;
67500;SDS011;54349;52.528;19.760;2023-02-01T16:13:22;11.30;;;5.40;;
67500;SDS011;54349;52.528;19.760;2023-02-01T16:15:51;10.20;;;5.00;;
67500;SDS011;54349;52.528;19.760;2023-02-01T16:18:19;13.30;;;5.90;;
67500;SDS011;54349;52.528;19.760;2023-02-01T16:20:47;12.30;;;6.30;;
67500;SDS011;54349;52.528;19.760;2023-02-01T16:23:16;10.90;;;5.20;;
67500;SDS011;54349;52.528;19.760;2023-02-01T16:25:45;11.50;;;5.20;;
67500;SDS011;54349;52.528;19.760;2023-02-01T16:28:14;8.50;;;4.70;;
67500;SDS011;54349;52.528;19.760;2023-02-01T16:30:43;10.40;;;5.30;;
67500;SDS011;54349;52.528;19.760;2023-02-01T16:33:16;9.10;;;4.70;;
67500;SDS011;54349;52.528;19.760;2023-02-01T16:35:50;9.10;;;4.60;;
67500;SDS011;54349;52.528;19.760;2023-02-01T16:38:20;9.50;;;4.70;;
67500;SDS011;54349;52.528;19.760;2023-02-01T16:40:51;11.40;;;5.00;;
67500;SDS011;54349;52.528;19.760;2023-02-01T16:43:22;9.10;;;4.00;;
67500;SDS011;54349;52.528;19.760;2023-02-01T16:45:54;10.70;;;4.30;;
67500;SDS011;54349;52.528;19.760;2023-02-01T16:48:26;9.80;;;4.30;;
67500;SDS011;54349;52.528;19.760;2023-02-01T16:50:57;9.90;;;4.00;;
67500;SDS011;54349;52.528;19.760;2023-02-01T16:53:30;9.00;;;4.10;;
67500;SDS011;54349;52.528;19.760;2023-02-01T16:56:30;9.70;;;3.80;;
67500;SDS011;54349;52.528;19.760;2023-02-01T16:59:00;9.20;;;3.70;;
67500;SDS011;54349;52.528;19.760;2023-02-01T17:01:30;9.70;;;3.70;;
67500;SDS011;54349;52.528;19.760;2023-02-01T17:03:58;11.60;;;4.30;;
67500;SDS011;54349;52.528;19.760;2023-02-01T17:06:27;7.70;;;3.30;;
67500;SDS011;54349;52.528;19.760;2023-02-01T17:08:57;7.40;;;3.00;;
67500;SDS011;54349;52.528;19.760;2023-02-01T17:11:27;7.00;;;2.90;;
67500;SDS011;54349;52.528;19.760;2023-02-01T17:14:19;5.30;;;2.80;;
67500;SDS011;54349;52.528;19.760;2023-02-01T17:16:50;7.60;;;3.00;;
67500;SDS011;54349;52.528;19.760;2023-02-01T17:19:21;7.10;;;3.00;;
67500;SDS011;54349;52.528;19.760;2023-02-01T17:21:53;7.20;;;3.10;;
67500;SDS011;54349;52.528;19.760;2023-02-01T17:24:26;7.40;;;2.90;;
67500;SDS011;54349;52.528;19.760;2023-02-01T17:27:15;9.00;;;4.00;;
67500;SDS011;54349;52.528;19.760;2023-02-01T17:29:45;9.20;;;4.60;;
67500;SDS011;54349;52.528;19.760;2023-02-01T17:32:17;10.80;;;5.20;;
67500;SDS011;54349;52.528;19.760;2023-02-01T17:34:49;13.40;;;5.70;;
67500;SDS011;54349;52.528;19.760;2023-02-01T17:37:32;11.10;;;5.30;;
67500;SDS011;54349;52.528;19.760;2023-02-01T17:40:02;10.40;;;4.90;;
67500;SDS011;54349;52.528;19.760;2023-02-01T17:42:31;14.30;;;5.80;;
67500;SDS011;54349;52.528;19.760;2023-02-01T17:45:10;10.90;;;5.70;;
67500;SDS011;54349;52.528;19.760;2023-02-01T17:47:42;11.30;;;5.60;;
67500;SDS011;54349;52.528;19.760;2023-02-01T17:50:11;10.50;;;5.20;;
67500;SDS011;54349;52.528;19.760;2023-02-01T17:52:39;11.60;;;5.70;;
67500;SDS011;54349;52.528;19.760;2023-02-01T17:55:17;14.20;;;5.70;;
67500;SDS011;54349;52.528;19.760;2023-02-01T17:57:50;10.80;;;5.60;;
67500;SDS011;54349;52.528;19.760;2023-02-01T18:00:19;11.60;;;5.20;;
67500;SDS011;54349;52.528;19.760;2023-02-01T18:02:48;9.90;;;5.30;;
67500;SDS011;54349;52.528;19.760;2023-02-01T18:05:21;11.50;;;5.20;;